createdAt,value
2022-09-17T00:00:31.622Z,99.90
2022-09-17T00:02:59.442Z,99.90
2022-09-17T00:05:27.191Z,99.90
2022-09-17T00:07:54.871Z,99.90
2022-09-17T00:10:23.123Z,99.90
2022-09-17T00:12:52.451Z,99.90
2022-09-17T00:15:20.143Z,99.90
2022-09-17T00:17:47.894Z,99.90
2022-09-17T00:20:15.557Z,99.90
2022-09-17T00:22:43.275Z,99.90
2022-09-17T00:25:10.920Z,99.90
2022-09-17T00:27:38.646Z,99.90
2022-09-17T00:30:08.613Z,99.90
2022-09-17T00:32:36.261Z,99.90
2022-09-17T00:35:04.015Z,99.90
2022-09-17T00:37:31.788Z,99.90
2022-09-17T00:39:59.510Z,99.90
2022-09-17T00:42:27.215Z,99.90
2022-09-17T00:44:55.555Z,99.90
2022-09-17T00:47:28.043Z,99.90
2022-09-17T00:49:57.729Z,99.90
2022-09-17T00:52:27.662Z,99.90
2022-09-17T00:54:58.407Z,99.90
2022-09-17T00:57:26.454Z,99.90
2022-09-17T00:59:54.791Z,99.90
2022-09-17T01:02:23.039Z,99.90
2022-09-17T01:04:52.174Z,99.90
2022-09-17T01:07:24.763Z,99.90
2022-09-17T01:09:54.547Z,99.90
2022-09-17T01:12:31.965Z,99.90
2022-09-17T01:15:08.315Z,99.90
2022-09-17T01:17:43.813Z,99.90
2022-09-17T01:20:29.463Z,99.90
2022-09-17T01:23:17.015Z,99.90
2022-09-17T01:25:53.331Z,99.90
2022-09-17T01:28:25.453Z,99.90
2022-09-17T01:31:05.480Z,99.90
2022-09-17T01:33:38.285Z,99.90
2022-09-17T01:36:10.818Z,99.90
2022-09-17T01:38:41.999Z,99.90
2022-09-17T01:41:12.441Z,99.90
2022-09-17T01:43:44.836Z,99.90
2022-09-17T01:46:16.060Z,99.90
2022-09-17T01:48:47.258Z,99.90
2022-09-17T01:51:17.499Z,99.90
2022-09-17T01:53:46.813Z,99.90
2022-09-17T01:56:18.263Z,99.90
2022-09-17T01:58:48.042Z,99.90
2022-09-17T02:01:18.585Z,99.90
2022-09-17T02:03:49.490Z,99.90
2022-09-17T02:06:18.974Z,99.90
2022-09-17T02:08:47.688Z,99.90
2022-09-17T02:11:17.118Z,99.90
2022-09-17T02:13:46.057Z,99.90
2022-09-17T02:16:16.905Z,99.90
2022-09-17T02:18:50.394Z,99.90
2022-09-17T02:21:23.064Z,99.90
2022-09-17T02:23:57.742Z,99.90
2022-09-17T02:26:26.774Z,99.90
2022-09-17T02:28:56.132Z,99.90
2022-09-17T02:31:23.902Z,99.90
2022-09-17T02:33:54.369Z,99.90
2022-09-17T02:36:23.776Z,99.90
2022-09-17T02:38:56.258Z,99.90
2022-09-17T02:41:26.912Z,99.90
2022-09-17T02:43:59.314Z,99.90
2022-09-17T02:46:41.694Z,99.90
2022-09-17T02:49:15.972Z,99.90
2022-09-17T02:51:48.325Z,99.90
2022-09-17T02:54:19.273Z,99.90
2022-09-17T02:56:52.004Z,99.90
2022-09-17T02:59:23.128Z,99.90
2022-09-17T03:01:53.230Z,99.90
2022-09-17T03:04:23.775Z,99.90
2022-09-17T03:06:53.101Z,99.90
2022-09-17T03:09:20.776Z,99.90
2022-09-17T03:11:48.711Z,99.90
2022-09-17T03:14:16.550Z,99.90
2022-09-17T03:16:44.200Z,99.90
2022-09-17T03:19:11.882Z,99.90
2022-09-17T03:21:41.276Z,99.90
2022-09-17T03:24:10.869Z,99.90
2022-09-17T03:26:38.767Z,99.90
2022-09-17T03:29:06.499Z,99.90
2022-09-17T03:31:34.264Z,99.90
2022-09-17T03:34:01.976Z,99.90
2022-09-17T03:36:29.768Z,99.90
2022-09-17T03:38:58.883Z,99.90
2022-09-17T03:41:26.551Z,99.90
2022-09-17T03:43:54.368Z,99.90
2022-09-17T03:46:22.294Z,99.90
2022-09-17T03:48:49.970Z,99.90
2022-09-17T03:51:17.627Z,99.90
2022-09-17T03:53:45.366Z,99.90
2022-09-17T03:56:14.469Z,99.90
2022-09-17T03:58:42.132Z,99.90
2022-09-17T04:01:09.811Z,99.90
2022-09-17T04:03:37.499Z,99.90
2022-09-17T04:06:05.236Z,99.90
2022-09-17T04:08:33.849Z,99.90
2022-09-17T04:11:01.498Z,99.90
2022-09-17T04:13:30.515Z,99.90
2022-09-17T04:15:58.242Z,99.90
2022-09-17T04:18:25.955Z,99.90
2022-09-17T04:20:54.099Z,99.90
2022-09-17T04:23:22.202Z,99.90
2022-09-17T04:25:50.331Z,99.90
2022-09-17T04:28:18.070Z,99.90
2022-09-17T04:30:48.599Z,99.90
2022-09-17T04:33:16.260Z,99.90
2022-09-17T04:35:43.943Z,99.90
2022-09-17T04:38:13.679Z,99.90
2022-09-17T04:40:42.486Z,99.90
2022-09-17T04:43:10.606Z,99.90
2022-09-17T04:45:38.272Z,99.90
2022-09-17T04:48:07.286Z,99.90
2022-09-17T04:50:35.205Z,99.90
2022-09-17T04:53:03.242Z,99.90
2022-09-17T04:55:31.259Z,99.90
2022-09-17T04:57:59.355Z,99.90
2022-09-17T05:00:27.019Z,99.90
2022-09-17T05:02:55.705Z,99.90
2022-09-17T05:05:24.995Z,99.90
2022-09-17T05:07:52.648Z,99.90
2022-09-17T05:10:21.164Z,99.90
2022-09-17T05:12:49.734Z,99.90
2022-09-17T05:15:17.435Z,99.90
2022-09-17T05:17:45.191Z,99.90
2022-09-17T05:20:13.064Z,99.90
2022-09-17T05:22:45.589Z,99.90
2022-09-17T05:25:13.437Z,99.90
2022-09-17T05:27:41.460Z,99.90
2022-09-17T05:30:09.706Z,99.90
2022-09-17T05:32:37.689Z,99.90
2022-09-17T05:35:06.191Z,99.90
2022-09-17T05:37:33.866Z,99.90
2022-09-17T05:40:03.262Z,99.90
2022-09-17T05:42:30.946Z,99.90
2022-09-17T05:44:58.599Z,99.90
2022-09-17T05:47:26.342Z,99.90
2022-09-17T05:49:53.974Z,99.90
2022-09-17T05:52:21.667Z,99.90
2022-09-17T05:54:49.626Z,99.90
2022-09-17T05:57:20.107Z,99.90
2022-09-17T05:59:47.830Z,99.90
2022-09-17T06:02:15.697Z,99.90
2022-09-17T06:04:43.376Z,99.90
2022-09-17T06:07:11.075Z,99.90
2022-09-17T06:09:40.540Z,99.90
2022-09-17T06:12:08.575Z,99.90
2022-09-17T06:14:37.607Z,99.90
2022-09-17T06:17:05.402Z,99.90
2022-09-17T06:19:33.039Z,99.90
2022-09-17T06:22:01.146Z,99.90
2022-09-17T06:24:28.856Z,99.90
2022-09-17T06:26:56.503Z,99.90
2022-09-17T06:29:24.235Z,99.90
2022-09-17T06:31:54.165Z,99.90
2022-09-17T06:34:21.903Z,99.90
2022-09-17T06:36:49.581Z,99.90
2022-09-17T06:39:17.464Z,99.90
2022-09-17T06:41:46.089Z,99.90
2022-09-17T06:44:13.785Z,99.90
2022-09-17T06:46:42.982Z,99.90
2022-09-17T06:49:12.175Z,99.90
2022-09-17T06:51:40.069Z,99.90
2022-09-17T06:54:07.752Z,99.90
2022-09-17T06:56:35.570Z,99.90
2022-09-17T06:59:03.368Z,99.90
2022-09-17T07:01:31.286Z,99.90
2022-09-17T07:03:59.014Z,99.90
2022-09-17T07:06:28.045Z,99.90
2022-09-17T07:08:55.835Z,99.90
2022-09-17T07:11:23.487Z,99.90
2022-09-17T07:13:51.194Z,99.90
2022-09-17T07:16:19.681Z,99.90
2022-09-17T07:18:47.392Z,99.90
2022-09-17T07:21:15.052Z,99.90
2022-09-17T07:23:44.690Z,99.90
2022-09-17T07:26:13.768Z,99.90
2022-09-17T07:28:41.740Z,99.90
2022-09-17T07:31:15.233Z,99.90
2022-09-17T07:33:44.246Z,99.90
2022-09-17T07:36:13.095Z,99.90
2022-09-17T07:38:40.753Z,99.90
2022-09-17T07:41:12.831Z,99.90
2022-09-17T07:43:40.549Z,99.90
2022-09-17T07:46:08.683Z,99.90
2022-09-17T07:48:36.314Z,99.90
2022-09-17T07:51:03.960Z,99.90
2022-09-17T07:53:31.601Z,99.90
2022-09-17T07:56:00.070Z,99.90
2022-09-17T07:58:31.144Z,99.90
2022-09-17T08:01:03.005Z,99.90
2022-09-17T08:03:30.652Z,99.90
2022-09-17T08:06:03.828Z,99.90
2022-09-17T08:08:33.629Z,99.90
2022-09-17T08:11:02.473Z,99.90
2022-09-17T08:13:31.588Z,99.90
2022-09-17T08:16:00.043Z,99.90
2022-09-17T08:18:28.376Z,99.90
2022-09-17T08:20:57.441Z,99.90
2022-09-17T08:23:25.170Z,99.90
2022-09-17T08:25:53.546Z,99.90
2022-09-17T08:28:21.381Z,99.90
2022-09-17T08:30:50.481Z,99.90
2022-09-17T08:33:18.577Z,99.90
2022-09-17T08:35:52.704Z,99.90
2022-09-17T08:38:20.695Z,99.90
2022-09-17T08:40:55.852Z,99.90
2022-09-17T08:43:24.337Z,99.90
2022-09-17T08:45:55.513Z,99.90
2022-09-17T08:48:23.844Z,99.90
2022-09-17T08:50:51.965Z,99.90
2022-09-17T08:53:26.093Z,99.90
2022-09-17T08:55:57.381Z,99.90
2022-09-17T08:58:32.043Z,99.90
2022-09-17T09:01:05.916Z,99.90
2022-09-17T09:03:41.654Z,99.90
2022-09-17T09:06:11.035Z,99.90
2022-09-17T09:08:40.681Z,99.90
2022-09-17T09:11:16.550Z,99.90
2022-09-17T09:13:45.738Z,99.90
2022-09-17T09:16:16.758Z,99.90
2022-09-17T09:18:44.550Z,99.90
2022-09-17T09:21:21.807Z,99.90
2022-09-17T09:23:53.381Z,99.90
2022-09-17T09:26:21.984Z,99.90
2022-09-17T09:29:06.451Z,99.90
2022-09-17T09:31:52.236Z,99.90
2022-09-17T09:34:21.528Z,99.90
2022-09-17T09:36:50.154Z,99.90
2022-09-17T09:39:21.712Z,99.90
2022-09-17T09:41:51.366Z,99.90
2022-09-17T09:44:19.022Z,99.90
2022-09-17T09:46:59.797Z,99.90
2022-09-17T09:49:34.965Z,99.90
2022-09-17T09:52:07.944Z,99.90
2022-09-17T09:54:46.614Z,99.90
2022-09-17T09:57:16.154Z,99.90
2022-09-17T09:59:43.867Z,99.90
2022-09-17T10:02:11.686Z,99.90
2022-09-17T10:04:40.906Z,99.90
2022-09-17T10:07:09.319Z,99.90
2022-09-17T10:09:37.911Z,99.90
2022-09-17T10:12:07.309Z,99.90
2022-09-17T10:14:35.699Z,99.90
2022-09-17T10:17:15.776Z,99.90
2022-09-17T10:19:45.867Z,99.90
2022-09-17T10:22:34.459Z,99.90
2022-09-17T10:25:02.694Z,99.90
2022-09-17T10:27:31.165Z,99.90
2022-09-17T10:30:03.041Z,99.90
2022-09-17T10:32:30.951Z,99.90
2022-09-17T10:35:00.699Z,99.90
2022-09-17T10:37:46.375Z,99.90
2022-09-17T10:40:29.242Z,99.90
2022-09-17T10:43:18.379Z,99.90
2022-09-17T10:45:47.097Z,99.90
2022-09-17T10:48:16.766Z,99.90
2022-09-17T10:50:50.452Z,99.90
2022-09-17T10:53:18.720Z,99.90
2022-09-17T10:55:48.382Z,99.90
2022-09-17T10:58:25.365Z,99.90
2022-09-17T11:00:59.876Z,99.90
2022-09-17T11:03:48.673Z,99.90
2022-09-17T11:06:31.442Z,99.90
2022-09-17T11:09:03.568Z,99.90
2022-09-17T11:11:40.190Z,99.90
2022-09-17T11:14:15.740Z,99.90
2022-09-17T11:16:49.032Z,99.90
2022-09-17T11:19:23.542Z,99.90
2022-09-17T11:21:57.187Z,99.90
2022-09-17T11:24:44.732Z,99.90
2022-09-17T11:27:18.151Z,99.90
2022-09-17T11:29:53.743Z,99.90
2022-09-17T11:32:31.545Z,99.90
2022-09-17T11:35:01.465Z,99.90
2022-09-17T11:37:33.057Z,99.90
2022-09-17T11:40:01.796Z,99.90
2022-09-17T11:42:32.892Z,99.90
2022-09-17T11:45:03.272Z,99.90
2022-09-17T11:47:32.096Z,99.90
2022-09-17T11:50:01.942Z,99.90
2022-09-17T11:52:33.263Z,99.90
2022-09-17T11:55:03.810Z,99.90
2022-09-17T11:57:33.654Z,99.90
2022-09-17T12:00:04.739Z,99.90
2022-09-17T12:02:39.367Z,99.90
2022-09-17T12:05:10.503Z,99.90
2022-09-17T12:07:42.099Z,99.90
2022-09-17T12:10:19.626Z,99.90
2022-09-17T12:12:51.177Z,99.90
2022-09-17T12:15:21.508Z,99.90
2022-09-17T12:18:08.716Z,99.90
2022-09-17T12:20:43.641Z,99.90
2022-09-17T12:23:15.886Z,99.90
2022-09-17T12:25:46.942Z,99.90
2022-09-17T12:28:19.494Z,99.90
2022-09-17T12:30:54.349Z,99.90
2022-09-17T12:33:25.012Z,99.90
2022-09-17T12:36:04.519Z,99.90
2022-09-17T12:38:42.946Z,99.90
2022-09-17T12:41:14.703Z,99.90
2022-09-17T12:43:50.214Z,99.90
2022-09-17T12:46:25.494Z,99.90
2022-09-17T12:49:19.086Z,99.40
2022-09-17T12:51:57.111Z,99.00
2022-09-17T12:54:34.648Z,99.20
2022-09-17T12:57:06.368Z,98.90
2022-09-17T12:59:35.392Z,97.80
2022-09-17T13:02:04.085Z,97.30
2022-09-17T13:05:00.917Z,97.60
2022-09-17T13:07:44.008Z,98.30
2022-09-17T13:10:25.003Z,98.50
2022-09-17T13:12:54.610Z,98.00
2022-09-17T13:15:31.467Z,98.50
2022-09-17T13:18:20.653Z,99.40
2022-09-17T13:20:56.370Z,98.50
2022-09-17T13:23:31.588Z,97.00
2022-09-17T13:26:04.565Z,97.30
2022-09-17T13:28:46.945Z,97.00
2022-09-17T13:31:20.234Z,96.70
2022-09-17T13:33:58.300Z,97.30
2022-09-17T13:36:46.191Z,97.40
2022-09-17T13:39:28.735Z,97.00
2022-09-17T13:42:02.920Z,96.30
2022-09-17T13:44:30.591Z,96.70
2022-09-17T13:47:09.195Z,96.30
2022-09-17T13:49:36.934Z,96.30
2022-09-17T13:52:08.947Z,96.10
2022-09-17T13:54:39.671Z,96.10
2022-09-17T13:57:18.450Z,96.00
2022-09-17T13:59:57.214Z,97.00
2022-09-17T14:02:31.030Z,96.80
2022-09-17T14:05:13.768Z,96.70
2022-09-17T14:07:48.868Z,95.30
2022-09-17T14:10:35.088Z,94.80
2022-09-17T14:13:17.628Z,96.00
2022-09-17T14:15:57.445Z,96.20
2022-09-17T14:18:35.369Z,96.80
2022-09-17T14:21:06.691Z,96.70
2022-09-17T14:23:34.655Z,97.00
2022-09-17T14:26:03.493Z,97.50
2022-09-17T14:28:35.030Z,98.50
2022-09-17T14:31:09.705Z,99.90
2022-09-17T14:33:37.514Z,99.90
2022-09-17T14:36:09.912Z,99.90
2022-09-17T14:38:44.367Z,99.90
2022-09-17T14:41:18.322Z,99.90
2022-09-17T14:43:48.710Z,99.90
2022-09-17T14:46:20.408Z,99.90
2022-09-17T14:48:48.109Z,99.90
2022-09-17T14:51:24.559Z,99.90
2022-09-17T14:54:07.112Z,99.90
2022-09-17T14:56:36.104Z,99.90
2022-09-17T14:59:03.795Z,99.90
2022-09-17T15:01:33.202Z,99.90
2022-09-17T15:04:20.922Z,99.90
2022-09-17T15:06:48.606Z,99.90
2022-09-17T15:09:16.988Z,99.90
2022-09-17T15:11:47.913Z,99.90
2022-09-17T15:14:18.432Z,99.90
2022-09-17T15:16:51.420Z,99.90
2022-09-17T15:19:23.114Z,99.90
2022-09-17T15:21:51.627Z,99.90
2022-09-17T15:24:22.524Z,99.90
2022-09-17T15:26:52.442Z,99.90
2022-09-17T15:29:22.353Z,99.90
2022-09-17T15:31:51.476Z,99.90
2022-09-17T15:34:19.237Z,99.90
2022-09-17T15:37:01.773Z,99.90
2022-09-17T15:39:30.819Z,99.90
2022-09-17T15:41:58.759Z,99.90
2022-09-17T15:44:31.483Z,99.90
2022-09-17T15:47:18.334Z,99.90
2022-09-17T15:50:04.925Z,99.90
2022-09-17T15:52:35.527Z,99.90
2022-09-17T15:55:03.303Z,99.90
2022-09-17T15:57:31.741Z,99.90
2022-09-17T16:00:06.697Z,99.90
2022-09-17T16:02:34.434Z,99.90
2022-09-17T16:05:17.364Z,99.90
2022-09-17T16:07:46.598Z,99.90
2022-09-17T16:10:15.173Z,99.90
2022-09-17T16:12:43.866Z,99.90
2022-09-17T16:15:13.641Z,99.90
2022-09-17T16:17:44.930Z,99.90
2022-09-17T16:20:17.439Z,99.90
2022-09-17T16:22:47.874Z,99.90
2022-09-17T16:25:15.982Z,99.90
2022-09-17T16:27:45.909Z,99.90
2022-09-17T16:30:15.777Z,99.90
2022-09-17T16:32:43.498Z,99.90
2022-09-17T16:35:16.981Z,99.90
2022-09-17T16:37:48.781Z,99.90
2022-09-17T16:40:16.752Z,99.90
2022-09-17T16:42:44.438Z,99.90
2022-09-17T16:45:12.491Z,99.90
2022-09-17T16:47:40.981Z,99.90
2022-09-17T16:50:09.723Z,99.90
2022-09-17T16:52:37.551Z,99.90
2022-09-17T16:55:07.874Z,99.90
2022-09-17T16:57:35.741Z,99.90
2022-09-17T17:00:04.113Z,99.90
2022-09-17T17:02:31.844Z,99.90
2022-09-17T17:04:59.496Z,99.90
2022-09-17T17:07:27.353Z,99.90
2022-09-17T17:09:55.062Z,99.90
2022-09-17T17:12:24.059Z,99.90
2022-09-17T17:14:52.617Z,99.90
2022-09-17T17:17:20.750Z,99.90
2022-09-17T17:19:48.447Z,99.90
2022-09-17T17:22:16.524Z,99.90
2022-09-17T17:24:44.175Z,99.90
2022-09-17T17:27:13.834Z,99.90
2022-09-17T17:29:42.953Z,99.90
2022-09-17T17:32:10.637Z,99.90
2022-09-17T17:34:38.333Z,99.90
2022-09-17T17:37:06.264Z,99.90
2022-09-17T17:39:33.894Z,99.90
2022-09-17T17:42:01.602Z,99.90
2022-09-17T17:44:29.309Z,99.90
2022-09-17T17:46:58.358Z,99.90
2022-09-17T17:49:26.173Z,99.90
2022-09-17T17:51:54.050Z,99.90
2022-09-17T17:54:21.992Z,99.90
2022-09-17T17:56:49.684Z,99.90
2022-09-17T17:59:17.365Z,99.90
2022-09-17T18:01:45.106Z,99.90
2022-09-17T18:04:14.255Z,99.90
2022-09-17T18:06:42.664Z,99.90
2022-09-17T18:09:10.325Z,99.90
2022-09-17T18:11:37.983Z,99.90
2022-09-17T18:14:05.911Z,99.90
2022-09-17T18:16:33.640Z,99.90
2022-09-17T18:19:01.811Z,99.90
2022-09-17T18:21:30.876Z,99.90
2022-09-17T18:23:58.899Z,99.90
2022-09-17T18:26:27.479Z,99.90
2022-09-17T18:28:55.258Z,99.90
2022-09-17T18:31:24.327Z,99.90
2022-09-17T18:33:55.923Z,99.90
2022-09-17T18:36:23.572Z,99.90
2022-09-17T18:38:55.020Z,99.90
2022-09-17T18:41:22.800Z,99.90
2022-09-17T18:43:50.828Z,99.90
2022-09-17T18:46:18.520Z,99.90
2022-09-17T18:48:46.230Z,99.90
2022-09-17T18:51:14.572Z,99.90
2022-09-17T18:53:42.495Z,99.90
2022-09-17T18:56:15.423Z,99.90
2022-09-17T18:58:43.220Z,99.90
2022-09-17T19:01:10.988Z,99.90
2022-09-17T19:03:38.729Z,99.90
2022-09-17T19:06:08.184Z,99.90
2022-09-17T19:08:36.152Z,99.90
2022-09-17T19:11:03.940Z,99.90
2022-09-17T19:13:35.506Z,99.90
2022-09-17T19:16:03.783Z,99.90
2022-09-17T19:18:33.012Z,99.90
2022-09-17T19:21:01.516Z,99.90
2022-09-17T19:23:29.292Z,99.90
2022-09-17T19:25:56.952Z,99.90
2022-09-17T19:28:24.630Z,99.90
2022-09-17T19:30:53.678Z,99.90
2022-09-17T19:33:21.411Z,99.90
2022-09-17T19:35:50.551Z,99.90
2022-09-17T19:38:18.271Z,99.90
2022-09-17T19:40:55.475Z,99.90
2022-09-17T19:43:23.164Z,99.90
2022-09-17T19:45:50.954Z,99.90
2022-09-17T19:48:24.555Z,99.90
2022-09-17T19:50:53.002Z,99.90
2022-09-17T19:53:20.935Z,99.90
2022-09-17T19:55:49.129Z,99.90
2022-09-17T19:58:17.087Z,99.90
2022-09-17T20:00:44.814Z,99.90
2022-09-17T20:03:12.523Z,99.90
2022-09-17T20:05:41.763Z,99.90
2022-09-17T20:08:09.399Z,99.90
2022-09-17T20:10:38.347Z,99.90
2022-09-17T20:13:07.050Z,99.90
2022-09-17T20:15:35.201Z,99.90
2022-09-17T20:18:02.898Z,99.90
2022-09-17T20:20:30.554Z,99.90
2022-09-17T20:22:59.547Z,99.90
2022-09-17T20:25:27.201Z,99.90
2022-09-17T20:27:54.931Z,99.90
2022-09-17T20:30:22.591Z,99.90
2022-09-17T20:32:50.255Z,99.90
2022-09-17T20:35:17.936Z,99.90
2022-09-17T20:38:44.558Z,99.90
2022-09-17T20:40:34.617Z,99.90
2022-09-17T20:43:02.319Z,99.90
2022-09-17T20:45:29.946Z,99.90
2022-09-17T20:47:57.842Z,99.90
2022-09-17T20:50:25.484Z,99.90
2022-09-17T20:52:53.128Z,99.90
2022-09-17T20:55:21.496Z,99.90
2022-09-17T20:57:53.562Z,99.90
2022-09-17T21:00:21.595Z,99.90
2022-09-17T21:02:54.088Z,99.90
2022-09-17T21:05:21.742Z,99.90
2022-09-17T21:07:49.390Z,99.90
2022-09-17T21:10:17.156Z,99.90
2022-09-17T21:12:44.806Z,99.90
2022-09-17T21:15:14.856Z,99.90
2022-09-17T21:17:45.274Z,99.90
2022-09-17T21:20:12.915Z,99.90
2022-09-17T21:22:40.667Z,99.90
2022-09-17T21:25:08.688Z,99.90
2022-09-17T21:27:36.327Z,99.90
2022-09-17T21:30:09.355Z,99.90
2022-09-17T21:32:38.712Z,99.90
2022-09-17T21:35:06.593Z,99.90
2022-09-17T21:37:36.382Z,99.90
2022-09-17T21:40:04.865Z,99.90
2022-09-17T21:42:32.920Z,99.90
2022-09-17T21:45:00.596Z,99.90
2022-09-17T21:47:28.250Z,99.90
2022-09-17T21:49:57.290Z,99.90
2022-09-17T21:52:25.059Z,99.90
2022-09-17T21:54:52.697Z,99.90
2022-09-17T21:57:20.332Z,99.90
2022-09-17T21:59:48.001Z,99.90
2022-09-17T22:02:15.660Z,99.90
2022-09-17T22:04:43.303Z,99.90
2022-09-17T22:07:12.299Z,99.90
2022-09-17T22:09:39.953Z,99.90
2022-09-17T22:12:07.637Z,99.90
2022-09-17T22:14:35.304Z,99.90
2022-09-17T22:17:02.996Z,99.90
2022-09-17T22:19:30.646Z,99.90
2022-09-17T22:21:58.309Z,99.90
2022-09-17T22:24:27.315Z,99.90
2022-09-17T22:26:57.749Z,99.90
2022-09-17T22:29:26.384Z,99.90
2022-09-17T22:31:54.044Z,99.90
2022-09-17T22:34:22.731Z,99.90
2022-09-17T22:36:50.508Z,99.90
2022-09-17T22:39:20.677Z,99.90
2022-09-17T22:41:50.074Z,99.90
2022-09-17T22:44:18.542Z,99.90
2022-09-17T22:46:47.269Z,99.90
2022-09-17T22:49:15.494Z,99.90
2022-09-17T22:51:43.719Z,99.90
2022-09-17T22:54:11.796Z,99.90
2022-09-17T22:56:40.188Z,99.90
2022-09-17T22:59:09.555Z,99.90
2022-09-17T23:01:37.938Z,99.90
2022-09-17T23:04:06.083Z,99.90
2022-09-17T23:06:34.610Z,99.90
2022-09-17T23:09:02.472Z,99.90
2022-09-17T23:11:31.841Z,99.90
2022-09-17T23:14:01.969Z,99.90
2022-09-17T23:16:34.175Z,99.90
2022-09-17T23:19:05.216Z,99.90
2022-09-17T23:21:33.067Z,99.90
2022-09-17T23:24:00.797Z,99.90
2022-09-17T23:26:28.489Z,99.90
2022-09-17T23:28:58.142Z,99.90
2022-09-17T23:31:30.185Z,99.90
2022-09-17T23:33:59.826Z,99.90
2022-09-17T23:36:28.239Z,99.90
2022-09-17T23:38:56.578Z,99.90
2022-09-17T23:41:24.750Z,99.90
2022-09-17T23:43:53.607Z,99.90
2022-09-17T23:46:22.508Z,99.90
2022-09-17T23:48:51.203Z,99.90
2022-09-17T23:51:20.603Z,99.90
2022-09-17T23:53:48.965Z,99.90
2022-09-17T23:56:17.971Z,99.90
2022-09-17T23:58:46.174Z,99.90
